sensor_id;sensor_type;location;lat;lon;timestamp;pressure;altitude;pressure_sealevel;temperature;humidity
64668;BME280;51077;42.716;23.344;2023-03-11T00:00:57;93607.28;;;13.10;69.35
64668;BME280;51077;42.716;23.344;2023-03-11T00:03:22;93611.94;;;13.07;69.22
64668;BME280;51077;42.716;23.344;2023-03-11T00:05:48;93607.72;;;13.06;69.22
64668;BME280;51077;42.716;23.344;2023-03-11T00:08:19;93608.47;;;13.07;69.02
64668;BME280;51077;42.716;23.344;2023-03-11T00:10:47;93610.88;;;13.03;68.70
64668;BME280;51077;42.716;23.344;2023-03-11T00:13:15;93597.66;;;13.01;68.63
64668;BME280;51077;42.716;23.344;2023-03-11T00:15:42;93596.38;;;13.02;68.53
64668;BME280;51077;42.716;23.344;2023-03-11T00:18:08;93604.47;;;13.00;68.62
64668;BME280;51077;42.716;23.344;2023-03-11T00:20:36;93598.81;;;12.98;68.51
64668;BME280;51077;42.716;23.344;2023-03-11T00:23:03;93591.69;;;12.95;68.78
64668;BME280;51077;42.716;23.344;2023-03-11T00:25:30;93583.09;;;12.91;68.59
64668;BME280;51077;42.716;23.344;2023-03-11T00:27:56;93580.94;;;12.90;68.76
64668;BME280;51077;42.716;23.344;2023-03-11T00:30:23;93577.28;;;12.87;69.00
64668;BME280;51077;42.716;23.344;2023-03-11T00:32:53;93577.28;;;12.87;68.76
64668;BME280;51077;42.716;23.344;2023-03-11T00:35:24;93563.34;;;12.85;68.87
64668;BME280;51077;42.716;23.344;2023-03-11T00:37:54;93570.13;;;12.84;68.74
64668;BME280;51077;42.716;23.344;2023-03-11T00:40:21;93551.44;;;12.82;68.80
64668;BME280;51077;42.716;23.344;2023-03-11T00:42:49;93560.84;;;12.79;68.95
64668;BME280;51077;42.716;23.344;2023-03-11T00:45:15;93564.88;;;12.78;68.84
64668;BME280;51077;42.716;23.344;2023-03-11T00:47:40;93568.94;;;12.77;69.04
64668;BME280;51077;42.716;23.344;2023-03-11T00:50:07;93557.75;;;12.75;69.03
64668;BME280;51077;42.716;23.344;2023-03-11T00:52:33;93552.84;;;12.74;69.10
64668;BME280;51077;42.716;23.344;2023-03-11T00:54:59;93551.38;;;12.73;69.14
64668;BME280;51077;42.716;23.344;2023-03-11T00:57:24;93547.19;;;12.72;68.86
64668;BME280;51077;42.716;23.344;2023-03-11T00:59:53;93542.22;;;12.70;69.17
64668;BME280;51077;42.716;23.344;2023-03-11T01:02:18;93539.47;;;12.70;68.92
64668;BME280;51077;42.716;23.344;2023-03-11T01:04:44;93538.19;;;12.71;69.11
64668;BME280;51077;42.716;23.344;2023-03-11T01:07:09;93528.47;;;12.70;68.92
64668;BME280;51077;42.716;23.344;2023-03-11T01:09:35;93529.19;;;12.71;69.08
64668;BME280;51077;42.716;23.344;2023-03-11T01:12:00;93526.59;;;12.73;69.11
64668;BME280;51077;42.716;23.344;2023-03-11T01:14:25;93529.34;;;12.73;69.00
64668;BME280;51077;42.716;23.344;2023-03-11T01:16:51;93514.88;;;12.72;68.89
64668;BME280;51077;42.716;23.344;2023-03-11T01:19:17;93514.88;;;12.72;69.12
64668;BME280;51077;42.716;23.344;2023-03-11T01:21:43;93505.88;;;12.72;69.00
64668;BME280;51077;42.716;23.344;2023-03-11T01:24:08;93494.16;;;12.71;69.01
64668;BME280;51077;42.716;23.344;2023-03-11T01:26:34;93485.91;;;12.71;69.08
64668;BME280;51077;42.716;23.344;2023-03-11T01:28:59;93482.38;;;12.71;68.84
64668;BME280;51077;42.716;23.344;2023-03-11T01:31:24;93480.94;;;12.70;68.67
64668;BME280;51077;42.716;23.344;2023-03-11T01:33:50;93480.94;;;12.70;68.78
64668;BME280;51077;42.716;23.344;2023-03-11T01:36:15;93469.94;;;12.70;68.69
64668;BME280;51077;42.716;23.344;2023-03-11T01:38:41;93454.72;;;12.69;68.87
64668;BME280;51077;42.716;23.344;2023-03-11T01:41:06;93469.06;;;12.67;68.66
64668;BME280;51077;42.716;23.344;2023-03-11T01:46:24;93466.00;;;12.63;68.94
64668;BME280;51077;42.716;23.344;2023-03-11T01:48:55;93473.34;;;12.61;68.74
64668;BME280;51077;42.716;23.344;2023-03-11T01:51:39;93475.19;;;12.58;68.91
64668;BME280;51077;42.716;23.344;2023-03-11T01:54:09;93482.41;;;12.53;68.96
64668;BME280;51077;42.716;23.344;2023-03-11T01:56:37;93490.53;;;12.51;68.80
64668;BME280;51077;42.716;23.344;2023-03-11T01:59:05;93491.97;;;12.52;69.00
64668;BME280;51077;42.716;23.344;2023-03-11T02:01:30;93509.06;;;12.51;68.99
64668;BME280;51077;42.716;23.344;2023-03-11T02:03:56;93495.84;;;12.49;68.91
64668;BME280;51077;42.716;23.344;2023-03-11T02:06:23;93490.91;;;12.48;69.14
64668;BME280;51077;42.716;23.344;2023-03-11T02:08:49;93491.66;;;12.48;69.07
64668;BME280;51077;42.716;23.344;2023-03-11T02:11:18;93487.44;;;12.47;69.07
64668;BME280;51077;42.716;23.344;2023-03-11T02:13:45;93494.25;;;12.46;69.01
64668;BME280;51077;42.716;23.344;2023-03-11T02:16:11;93494.06;;;12.44;69.17
64668;BME280;51077;42.716;23.344;2023-03-11T02:18:38;93498.84;;;12.44;69.10
64668;BME280;51077;42.716;23.344;2023-03-11T02:21:20;93506.97;;;12.42;69.15
64668;BME280;51077;42.716;23.344;2023-03-11T02:24:14;93521.84;;;12.39;68.97
64668;BME280;51077;42.716;23.344;2023-03-11T02:29:24;93508.47;;;12.35;69.12
64668;BME280;51077;42.716;23.344;2023-03-11T02:31:51;93518.03;;;12.34;68.94
64668;BME280;51077;42.716;23.344;2023-03-11T02:34:46;93513.66;;;12.31;69.18
64668;BME280;51077;42.716;23.344;2023-03-11T02:37:14;93509.47;;;12.30;69.18
64668;BME280;51077;42.716;23.344;2023-03-11T02:39:48;93507.81;;;12.27;69.16
64668;BME280;51077;42.716;23.344;2023-03-11T02:44:45;93493.59;;;12.21;68.90
64668;BME280;51077;42.716;23.344;2023-03-11T02:47:11;93500.22;;;12.18;68.94
64668;BME280;51077;42.716;23.344;2023-03-11T02:49:37;93502.09;;;12.15;68.86
64668;BME280;51077;42.716;23.344;2023-03-11T02:52:02;93501.38;;;12.15;68.95
64668;BME280;51077;42.716;23.344;2023-03-11T02:54:28;93515.13;;;12.15;68.40
64668;BME280;51077;42.716;23.344;2023-03-11T02:56:53;93509.44;;;12.13;68.26
64668;BME280;51077;42.716;23.344;2023-03-11T02:59:18;93515.13;;;12.15;68.35
64668;BME280;51077;42.716;23.344;2023-03-11T03:01:44;93513.81;;;12.16;68.03
64668;BME280;51077;42.716;23.344;2023-03-11T03:04:09;93519.66;;;12.20;67.76
64668;BME280;51077;42.716;23.344;2023-03-11T03:06:35;93532.09;;;12.21;67.86
64668;BME280;51077;42.716;23.344;2023-03-11T03:09:00;93518.69;;;12.25;67.65
64668;BME280;51077;42.716;23.344;2023-03-11T03:11:25;93518.09;;;12.26;67.56
64668;BME280;51077;42.716;23.344;2023-03-11T03:13:51;93510.75;;;12.29;67.49
64668;BME280;51077;42.716;23.344;2023-03-11T03:16:16;93517.88;;;12.32;67.25
64668;BME280;51077;42.716;23.344;2023-03-11T03:18:42;93523.38;;;12.32;67.34
64668;BME280;51077;42.716;23.344;2023-03-11T03:21:07;93528.31;;;12.33;67.33
64668;BME280;51077;42.716;23.344;2023-03-11T03:23:33;93528.31;;;12.33;67.18
64668;BME280;51077;42.716;23.344;2023-03-11T03:26:00;93529.19;;;12.36;67.10
64668;BME280;51077;42.716;23.344;2023-03-11T03:28:26;93532.13;;;12.38;66.90
64668;BME280;51077;42.716;23.344;2023-03-11T03:30:51;93533.41;;;12.37;66.74
64668;BME280;51077;42.716;23.344;2023-03-11T03:33:16;93530.81;;;12.39;66.73
64668;BME280;51077;42.716;23.344;2023-03-11T03:35:43;93536.50;;;12.41;66.83
64668;BME280;51077;42.716;23.344;2023-03-11T03:38:09;93531.72;;;12.42;66.77
64668;BME280;51077;42.716;23.344;2023-03-11T03:40:34;93527.66;;;12.43;66.47
64668;BME280;51077;42.716;23.344;2023-03-11T03:43:00;93527.09;;;12.44;66.56
64668;BME280;51077;42.716;23.344;2023-03-11T03:45:25;93525.81;;;12.45;66.54
64668;BME280;51077;42.716;23.344;2023-03-11T03:47:50;93523.06;;;12.45;66.70
64668;BME280;51077;42.716;23.344;2023-03-11T03:50:16;93522.50;;;12.47;66.64
64668;BME280;51077;42.716;23.344;2023-03-11T03:52:41;93519.75;;;12.47;66.56
64668;BME280;51077;42.716;23.344;2023-03-11T03:55:07;93518.44;;;12.48;66.58
64668;BME280;51077;42.716;23.344;2023-03-11T03:57:32;93511.63;;;12.49;66.44
64668;BME280;51077;42.716;23.344;2023-03-11T03:59:58;93512.34;;;12.49;66.44
64668;BME280;51077;42.716;23.344;2023-03-11T04:02:23;93517.88;;;12.49;66.48
64668;BME280;51077;42.716;23.344;2023-03-11T04:04:49;93506.84;;;12.49;66.44
64668;BME280;51077;42.716;23.344;2023-03-11T04:07:14;93515.28;;;12.51;66.53
64668;BME280;51077;42.716;23.344;2023-03-11T04:09:41;93511.97;;;12.53;66.30
64668;BME280;51077;42.716;23.344;2023-03-11T04:12:12;93498.78;;;12.51;66.30
64668;BME280;51077;42.716;23.344;2023-03-11T04:14:37;93505.72;;;12.52;66.18
64668;BME280;51077;42.716;23.344;2023-03-11T04:17:03;93501.53;;;12.51;66.25
64668;BME280;51077;42.716;23.344;2023-03-11T04:19:28;93506.13;;;12.49;65.95
64668;BME280;51077;42.716;23.344;2023-03-11T04:21:53;93505.97;;;12.47;65.87
64668;BME280;51077;42.716;23.344;2023-03-11T04:24:19;93512.22;;;12.47;65.96
64668;BME280;51077;42.716;23.344;2023-03-11T04:26:44;93522.50;;;12.47;65.73
64668;BME280;51077;42.716;23.344;2023-03-11T04:29:10;93517.00;;;12.47;65.63
64668;BME280;51077;42.716;23.344;2023-03-11T04:31:35;93517.00;;;12.47;65.55
64668;BME280;51077;42.716;23.344;2023-03-11T04:34:01;93509.31;;;12.45;65.49
64668;BME280;51077;42.716;23.344;2023-03-11T04:36:26;93501.47;;;12.42;65.26
64668;BME280;51077;42.716;23.344;2023-03-11T04:38:52;93511.75;;;12.41;65.07
64668;BME280;51077;42.716;23.344;2023-03-11T04:41:17;93511.75;;;12.41;64.71
64668;BME280;51077;42.716;23.344;2023-03-11T04:43:42;93514.31;;;12.39;64.72
64668;BME280;51077;42.716;23.344;2023-03-11T04:46:08;93517.78;;;12.40;64.30
64668;BME280;51077;42.716;23.344;2023-03-11T04:48:33;93511.00;;;12.41;64.22
64668;BME280;51077;42.716;23.344;2023-03-11T04:50:59;93517.25;;;12.41;63.62
64668;BME280;51077;42.716;23.344;2023-03-11T04:53:24;93516.50;;;12.41;63.84
64668;BME280;51077;42.716;23.344;2023-03-11T04:55:50;93511.00;;;12.41;63.65
64668;BME280;51077;42.716;23.344;2023-03-11T04:58:16;93515.75;;;12.40;63.59
64668;BME280;51077;42.716;23.344;2023-03-11T05:00:41;93519.09;;;12.39;63.21
64668;BME280;51077;42.716;23.344;2023-03-11T05:03:07;93530.09;;;12.39;63.05
64668;BME280;51077;42.716;23.344;2023-03-11T05:05:32;93527.53;;;12.41;62.95
64668;BME280;51077;42.716;23.344;2023-03-11T05:07:58;93535.91;;;12.43;63.09
64668;BME280;51077;42.716;23.344;2023-03-11T05:10:23;93538.81;;;12.45;62.77
64668;BME280;51077;42.716;23.344;2023-03-11T05:12:49;93536.97;;;12.47;62.69
64668;BME280;51077;42.716;23.344;2023-03-11T05:15:15;93539.16;;;12.66;68.25
64668;BME280;51077;42.716;23.344;2023-03-11T05:17:41;93545.22;;;12.82;68.45
64668;BME280;51077;42.716;23.344;2023-03-11T05:20:07;93549.59;;;12.85;67.33
64668;BME280;51077;42.716;23.344;2023-03-11T05:22:33;93543.50;;;12.87;66.94
64668;BME280;51077;42.716;23.344;2023-03-11T05:24:58;93555.25;;;12.87;66.34
64668;BME280;51077;42.716;23.344;2023-03-11T05:27:24;93563.19;;;12.83;65.77
64668;BME280;51077;42.716;23.344;2023-03-11T05:29:49;93553.72;;;12.76;63.59
64668;BME280;51077;42.716;23.344;2023-03-11T05:32:15;93556.88;;;12.73;63.28
64668;BME280;51077;42.716;23.344;2023-03-11T05:34:40;93574.84;;;12.74;63.26
64668;BME280;51077;42.716;23.344;2023-03-11T05:37:06;93577.03;;;12.75;62.89
64668;BME280;51077;42.716;23.344;2023-03-11T05:39:32;93575.19;;;12.78;62.89
64668;BME280;51077;42.716;23.344;2023-03-11T05:41:57;93579.38;;;12.79;62.50
64668;BME280;51077;42.716;23.344;2023-03-11T05:44:23;93589.84;;;12.80;62.47
64668;BME280;51077;42.716;23.344;2023-03-11T05:46:48;93591.28;;;12.81;61.86
64668;BME280;51077;42.716;23.344;2023-03-11T05:49:14;93592.16;;;12.84;62.04
64668;BME280;51077;42.716;23.344;2023-03-11T05:51:39;93595.81;;;12.87;61.79
64668;BME280;51077;42.716;23.344;2023-03-11T05:54:05;93606.25;;;12.88;61.68
64668;BME280;51077;42.716;23.344;2023-03-11T05:56:36;93606.44;;;12.90;61.72
64668;BME280;51077;42.716;23.344;2023-03-11T05:59:01;93615.41;;;12.91;60.89
64668;BME280;51077;42.716;23.344;2023-03-11T06:01:27;93617.44;;;12.90;60.75
64668;BME280;51077;42.716;23.344;2023-03-11T06:03:52;93627.16;;;12.91;60.72
64668;BME280;51077;42.716;23.344;2023-03-11T06:06:17;93624.59;;;12.93;60.53
64668;BME280;51077;42.716;23.344;2023-03-11T06:08:43;93628.94;;;12.96;60.43
64668;BME280;51077;42.716;23.344;2023-03-11T06:11:13;93629.13;;;12.98;60.35
64668;BME280;51077;42.716;23.344;2023-03-11T06:13:39;93630.72;;;13.01;60.33
64668;BME280;51077;42.716;23.344;2023-03-11T06:16:05;93634.94;;;13.02;60.20
64668;BME280;51077;42.716;23.344;2023-03-11T06:18:31;93632.50;;;13.06;60.63
64668;BME280;51077;42.716;23.344;2023-03-11T06:20:57;93633.25;;;13.07;60.51
64668;BME280;51077;42.716;23.344;2023-03-11T06:23:23;93629.03;;;13.06;60.38
64668;BME280;51077;42.716;23.344;2023-03-11T06:25:58;93639.31;;;13.05;60.20
64668;BME280;51077;42.716;23.344;2023-03-11T06:28:25;93643.53;;;13.06;59.99
64668;BME280;51077;42.716;23.344;2023-03-11T06:30:51;93634.38;;;13.04;59.98
64668;BME280;51077;42.716;23.344;2023-03-11T06:33:16;93633.97;;;13.07;59.86
64668;BME280;51077;42.716;23.344;2023-03-11T06:35:41;93631.94;;;13.08;59.94
64668;BME280;51077;42.716;23.344;2023-03-11T06:38:07;93634.84;;;13.10;59.81
64668;BME280;51077;42.716;23.344;2023-03-11T06:40:33;93632.41;;;13.14;59.87
64668;BME280;51077;42.716;23.344;2023-03-11T06:42:58;93638.81;;;13.17;59.85
64668;BME280;51077;42.716;23.344;2023-03-11T06:45:24;93634.94;;;13.20;59.65
64668;BME280;51077;42.716;23.344;2023-03-11T06:47:49;93638.59;;;13.22;59.66
64668;BME280;51077;42.716;23.344;2023-03-11T06:50:15;93643.69;;;13.26;59.46
64668;BME280;51077;42.716;23.344;2023-03-11T06:52:41;93644.75;;;13.30;59.50
64668;BME280;51077;42.716;23.344;2023-03-11T06:55:06;93639.22;;;13.30;59.71
64668;BME280;51077;42.716;23.344;2023-03-11T06:57:32;93645.78;;;13.35;59.71
64668;BME280;51077;42.716;23.344;2023-03-11T06:59:57;93645.25;;;13.37;59.83
64668;BME280;51077;42.716;23.344;2023-03-11T07:02:23;93638.00;;;13.41;59.58
64668;BME280;51077;42.716;23.344;2023-03-11T07:04:49;93640.34;;;13.45;59.58
64668;BME280;51077;42.716;23.344;2023-03-11T07:07:14;93643.41;;;13.49;59.75
64668;BME280;51077;42.716;23.344;2023-03-11T07:09:40;93649.97;;;13.53;59.58
64668;BME280;51077;42.716;23.344;2023-03-11T07:12:05;93644.78;;;13.57;59.56
64668;BME280;51077;42.716;23.344;2023-03-11T07:14:31;93647.28;;;13.63;59.62
64668;BME280;51077;42.716;23.344;2023-03-11T07:16:56;93649.06;;;13.68;59.47
64668;BME280;51077;42.716;23.344;2023-03-11T07:19:21;93638.34;;;13.72;59.58
64668;BME280;51077;42.716;23.344;2023-03-11T07:21:47;93637.34;;;13.77;59.36
64668;BME280;51077;42.716;23.344;2023-03-11T07:24:12;93639.69;;;13.81;58.98
64668;BME280;51077;42.716;23.344;2023-03-11T07:26:39;93631.88;;;13.87;59.18
64668;BME280;51077;42.716;23.344;2023-03-11T07:29:05;93632.50;;;13.95;59.04
64668;BME280;51077;42.716;23.344;2023-03-11T07:31:33;93622.81;;;14.04;58.88
64668;BME280;51077;42.716;23.344;2023-03-11T07:34:00;93616.59;;;14.13;58.71
64668;BME280;51077;42.716;23.344;2023-03-11T07:36:27;93613.88;;;14.23;58.57
64668;BME280;51077;42.716;23.344;2023-03-11T07:39:00;93616.09;;;14.34;58.33
64668;BME280;51077;42.716;23.344;2023-03-11T07:41:29;93603.03;;;14.44;58.23
64668;BME280;51077;42.716;23.344;2023-03-11T07:43:56;93593.81;;;14.69;57.85
64668;BME280;51077;42.716;23.344;2023-03-11T07:46:23;93595.56;;;15.13;57.28
64668;BME280;51077;42.716;23.344;2023-03-11T07:48:50;93589.97;;;15.61;56.78
64668;BME280;51077;42.716;23.344;2023-03-11T07:51:21;93588.19;;;16.16;55.72
64668;BME280;51077;42.716;23.344;2023-03-11T07:53:47;93585.84;;;16.75;54.54
64668;BME280;51077;42.716;23.344;2023-03-11T07:56:15;93583.94;;;17.32;53.36
64668;BME280;51077;42.716;23.344;2023-03-11T07:58:41;93582.53;;;17.88;51.84
64668;BME280;51077;42.716;23.344;2023-03-11T08:01:11;93582.91;;;18.41;50.82
64668;BME280;51077;42.716;23.344;2023-03-11T08:03:37;93564.25;;;18.90;49.53
64668;BME280;51077;42.716;23.344;2023-03-11T08:06:17;93559.94;;;19.38;48.05
64668;BME280;51077;42.716;23.344;2023-03-11T08:08:43;93555.47;;;19.84;47.08
64668;BME280;51077;42.716;23.344;2023-03-11T08:11:10;93552.75;;;20.25;46.23
64668;BME280;51077;42.716;23.344;2023-03-11T08:13:38;93550.09;;;20.69;45.93
64668;BME280;51077;42.716;23.344;2023-03-11T08:16:05;93540.38;;;21.13;45.00
64668;BME280;51077;42.716;23.344;2023-03-11T08:18:31;93542.41;;;21.56;44.14
64668;BME280;51077;42.716;23.344;2023-03-11T08:20:57;93535.97;;;21.99;43.45
64668;BME280;51077;42.716;23.344;2023-03-11T08:23:23;93535.06;;;22.42;43.14
64668;BME280;51077;42.716;23.344;2023-03-11T08:25:49;93526.78;;;22.77;42.26
64668;BME280;51077;42.716;23.344;2023-03-11T08:28:14;93514.69;;;23.06;41.90
64668;BME280;51077;42.716;23.344;2023-03-11T08:30:40;93509.25;;;23.11;41.37
64668;BME280;51077;42.716;23.344;2023-03-11T08:33:05;93508.72;;;23.32;40.98
64668;BME280;51077;42.716;23.344;2023-03-11T08:35:31;93502.94;;;23.46;40.42
64668;BME280;51077;42.716;23.344;2023-03-11T08:37:56;93497.91;;;23.60;40.45
64668;BME280;51077;42.716;23.344;2023-03-11T08:40:22;93495.34;;;23.66;39.94
64668;BME280;51077;42.716;23.344;2023-03-11T08:42:48;93496.00;;;23.65;40.16
64668;BME280;51077;42.716;23.344;2023-03-11T08:45:13;93505.50;;;23.57;39.15
64668;BME280;51077;42.716;23.344;2023-03-11T08:47:39;93495.84;;;23.43;40.18
64668;BME280;51077;42.716;23.344;2023-03-11T08:50:08;93491.53;;;23.22;39.89
64668;BME280;51077;42.716;23.344;2023-03-11T08:52:35;93484.16;;;23.13;39.25
64668;BME280;51077;42.716;23.344;2023-03-11T08:55:01;93480.56;;;22.92;40.33
64668;BME280;51077;42.716;23.344;2023-03-11T08:57:29;93477.91;;;22.96;40.44
64668;BME280;51077;42.716;23.344;2023-03-11T08:59:54;93475.13;;;22.96;39.98
64668;BME280;51077;42.716;23.344;2023-03-11T09:02:23;93477.22;;;22.96;39.90
64668;BME280;51077;42.716;23.344;2023-03-11T09:04:48;93468.97;;;23.00;38.74
64668;BME280;51077;42.716;23.344;2023-03-11T09:07:13;93468.72;;;23.12;38.85
64668;BME280;51077;42.716;23.344;2023-03-11T09:09:39;93479.09;;;23.45;38.38
64668;BME280;51077;42.716;23.344;2023-03-11T09:12:05;93472.53;;;23.74;36.88
64668;BME280;51077;42.716;23.344;2023-03-11T09:14:32;93458.97;;;24.06;35.78
64668;BME280;51077;42.716;23.344;2023-03-11T09:16:57;93459.47;;;24.40;35.17
64668;BME280;51077;42.716;23.344;2023-03-11T09:19:22;93459.28;;;24.76;33.97
64668;BME280;51077;42.716;23.344;2023-03-11T09:21:48;93456.69;;;25.04;32.93
64668;BME280;51077;42.716;23.344;2023-03-11T09:24:13;93451.72;;;25.24;32.13
64668;BME280;51077;42.716;23.344;2023-03-11T09:26:38;93457.78;;;25.39;31.73
64668;BME280;51077;42.716;23.344;2023-03-11T09:29:04;93461.91;;;25.60;31.36
64668;BME280;51077;42.716;23.344;2023-03-11T09:31:29;93461.09;;;25.79;30.91
64668;BME280;51077;42.716;23.344;2023-03-11T09:33:55;93449.06;;;26.00;30.92
64668;BME280;51077;42.716;23.344;2023-03-11T09:36:21;93449.78;;;26.27;30.09
64668;BME280;51077;42.716;23.344;2023-03-11T09:38:46;93458.06;;;26.47;30.25
64668;BME280;51077;42.716;23.344;2023-03-11T09:41:51;93444.63;;;26.71;29.80
64668;BME280;51077;42.716;23.344;2023-03-11T09:44:18;93446.97;;;26.81;29.37
64668;BME280;51077;42.716;23.344;2023-03-11T09:52:08;93444.75;;;26.23;29.16
64668;BME280;51077;42.716;23.344;2023-03-11T09:54:37;93443.31;;;25.96;29.37
64668;BME280;51077;42.716;23.344;2023-03-11T09:57:05;93442.66;;;25.98;29.39
64668;BME280;51077;42.716;23.344;2023-03-11T09:59:35;93447.56;;;26.23;29.72
64668;BME280;51077;42.716;23.344;2023-03-11T10:02:01;93445.66;;;26.56;29.83
64668;BME280;51077;42.716;23.344;2023-03-11T10:07:42;93439.59;;;27.24;28.86
64668;BME280;51077;42.716;23.344;2023-03-11T10:10:12;93450.38;;;27.34;29.37
64668;BME280;51077;42.716;23.344;2023-03-11T10:16:00;93449.81;;;27.39;28.93
64668;BME280;51077;42.716;23.344;2023-03-11T10:24:48;93457.22;;;27.87;28.81
64668;BME280;51077;42.716;23.344;2023-03-11T10:27:23;93451.88;;;28.37;28.60
64668;BME280;51077;42.716;23.344;2023-03-11T10:30:12;93455.00;;;28.53;28.05
64668;BME280;51077;42.716;23.344;2023-03-11T10:32:50;93448.94;;;28.69;28.11
64668;BME280;51077;42.716;23.344;2023-03-11T10:35:25;93449.25;;;28.88;27.81
64668;BME280;51077;42.716;23.344;2023-03-11T10:38:14;93443.53;;;28.84;27.85
64668;BME280;51077;42.716;23.344;2023-03-11T10:40:43;93452.13;;;28.51;27.94
64668;BME280;51077;42.716;23.344;2023-03-11T10:43:12;93449.31;;;28.15;27.93
64668;BME280;51077;42.716;23.344;2023-03-11T10:45:41;93444.84;;;27.70;27.96
64668;BME280;51077;42.716;23.344;2023-03-11T10:48:10;93440.91;;;27.21;28.46
64668;BME280;51077;42.716;23.344;2023-03-11T10:50:45;93451.06;;;26.76;29.27
64668;BME280;51077;42.716;23.344;2023-03-11T10:53:16;93467.41;;;26.29;29.49
64668;BME280;51077;42.716;23.344;2023-03-11T10:55:54;93494.81;;;25.79;30.11
64668;BME280;51077;42.716;23.344;2023-03-11T10:58:22;93469.09;;;25.19;30.92
64668;BME280;51077;42.716;23.344;2023-03-11T11:01:13;93474.34;;;24.45;31.19
64668;BME280;51077;42.716;23.344;2023-03-11T11:03:40;93479.88;;;23.83;32.27
64668;BME280;51077;42.716;23.344;2023-03-11T11:08:44;93482.31;;;23.01;33.84
64668;BME280;51077;42.716;23.344;2023-03-11T11:11:21;93480.03;;;22.80;34.34
64668;BME280;51077;42.716;23.344;2023-03-11T11:14:05;93475.22;;;22.65;34.57
64668;BME280;51077;42.716;23.344;2023-03-11T11:16:32;93467.75;;;22.53;34.98
64668;BME280;51077;42.716;23.344;2023-03-11T11:19:11;93468.13;;;22.46;35.28
64668;BME280;51077;42.716;23.344;2023-03-11T11:21:46;93454.41;;;22.34;35.58
64668;BME280;51077;42.716;23.344;2023-03-11T11:24:28;93447.03;;;22.25;35.55
64668;BME280;51077;42.716;23.344;2023-03-11T11:29:41;93432.22;;;23.07;34.91
64668;BME280;51077;42.716;23.344;2023-03-11T11:34:57;93425.50;;;23.90;33.72
64668;BME280;51077;42.716;23.344;2023-03-11T11:37:25;93423.09;;;24.02;33.44
64668;BME280;51077;42.716;23.344;2023-03-11T11:39:59;93411.25;;;24.04;33.46
64668;BME280;51077;42.716;23.344;2023-03-11T11:42:27;93410.25;;;23.95;33.61
64668;BME280;51077;42.716;23.344;2023-03-11T11:45:15;93397.03;;;23.78;33.78
64668;BME280;51077;42.716;23.344;2023-03-11T11:47:46;93399.22;;;23.62;33.83
64668;BME280;51077;42.716;23.344;2023-03-11T11:50:25;93385.34;;;23.46;34.26
64668;BME280;51077;42.716;23.344;2023-03-11T11:53:26;93380.03;;;23.34;34.48
64668;BME280;51077;42.716;23.344;2023-03-11T11:55:50;93381.16;;;23.27;34.52
64668;BME280;51077;42.716;23.344;2023-03-11T11:58:20;93391.47;;;23.22;34.77
64668;BME280;51077;42.716;23.344;2023-03-11T12:01:06;93384.94;;;23.16;34.80
64668;BME280;51077;42.716;23.344;2023-03-11T12:09:13;93373.88;;;24.17;32.67
64668;BME280;51077;42.716;23.344;2023-03-11T12:12:31;93358.53;;;24.62;31.38
64668;BME280;51077;42.716;23.344;2023-03-11T12:17:51;93366.25;;;25.55;29.84
64668;BME280;51077;42.716;23.344;2023-03-11T12:26:08;93363.44;;;25.55;29.24
64668;BME280;51077;42.716;23.344;2023-03-11T12:28:43;93367.13;;;25.36;28.29
64668;BME280;51077;42.716;23.344;2023-03-11T12:31:11;93365.34;;;25.23;27.72
64668;BME280;51077;42.716;23.344;2023-03-11T12:36:05;93343.66;;;24.79;27.47
64668;BME280;51077;42.716;23.344;2023-03-11T12:38:37;93356.78;;;24.51;27.74
64668;BME280;51077;42.716;23.344;2023-03-11T12:46:12;93354.41;;;23.62;28.12
64668;BME280;51077;42.716;23.344;2023-03-11T12:53:54;93361.13;;;22.61;28.92
64668;BME280;51077;42.716;23.344;2023-03-11T13:00:02;93374.13;;;22.03;29.80
64668;BME280;51077;42.716;23.344;2023-03-11T13:08:48;93397.91;;;21.09;31.27
64668;BME280;51077;42.716;23.344;2023-03-11T13:16:39;93419.31;;;20.31;32.49
64668;BME280;51077;42.716;23.344;2023-03-11T13:21:57;93458.34;;;19.90;33.79
64668;BME280;51077;42.716;23.344;2023-03-11T13:30:33;93488.38;;;19.52;35.24
64668;BME280;51077;42.716;23.344;2023-03-11T13:32:57;93494.63;;;19.39;35.81
64668;BME280;51077;42.716;23.344;2023-03-11T13:38:40;93515.44;;;19.13;37.16
64668;BME280;51077;42.716;23.344;2023-03-11T13:41:20;93513.19;;;18.97;37.85
64668;BME280;51077;42.716;23.344;2023-03-11T13:43:49;93535.38;;;18.83;38.56
64668;BME280;51077;42.716;23.344;2023-03-11T13:48:49;93540.97;;;18.48;39.81
64668;BME280;51077;42.716;23.344;2023-03-11T13:51:35;93542.09;;;18.31;40.29
64668;BME280;51077;42.716;23.344;2023-03-11T13:57:22;93532.34;;;17.95;41.41
64668;BME280;51077;42.716;23.344;2023-03-11T13:59:53;93514.72;;;17.79;41.91
64668;BME280;51077;42.716;23.344;2023-03-11T14:02:22;93511.16;;;17.67;42.51
64668;BME280;51077;42.716;23.344;2023-03-11T14:05:39;93513.22;;;17.54;42.66
64668;BME280;51077;42.716;23.344;2023-03-11T14:08:38;93507.03;;;17.44;43.14
64668;BME280;51077;42.716;23.344;2023-03-11T14:13:38;93510.38;;;17.31;43.52
64668;BME280;51077;42.716;23.344;2023-03-11T14:16:09;93512.78;;;17.25;43.66
64668;BME280;51077;42.716;23.344;2023-03-11T14:18:40;93519.53;;;17.22;43.80
64668;BME280;51077;42.716;23.344;2023-03-11T14:21:13;93523.97;;;17.15;44.19
64668;BME280;51077;42.716;23.344;2023-03-11T14:23:45;93530.09;;;17.14;44.34
64668;BME280;51077;42.716;23.344;2023-03-11T14:26:14;93545.16;;;17.11;44.52
64668;BME280;51077;42.716;23.344;2023-03-11T14:28:43;93539.50;;;17.08;44.50
64668;BME280;51077;42.716;23.344;2023-03-11T14:31:30;93541.91;;;17.14;47.47
64668;BME280;51077;42.716;23.344;2023-03-11T14:34:04;93544.22;;;17.18;47.75